sensor_id;sensor_type;location;lat;lon;timestamp;pressure;altitude;pressure_sealevel;temperature;humidity
35577;BME280;21680;52.400;16.920;2023-05-29T00:00:19;101042.61;;;13.39;47.58
35577;BME280;21680;52.400;16.920;2023-05-29T00:02:47;101042.60;;;13.31;47.70
35577;BME280;21680;52.400;16.920;2023-05-29T00:05:13;101042.85;;;13.22;47.93
35577;BME280;21680;52.400;16.920;2023-05-29T00:07:39;101043.18;;;13.15;48.19
35577;BME280;21680;52.400;16.920;2023-05-29T00:10:06;101040.00;;;13.10;48.28
35577;BME280;21680;52.400;16.920;2023-05-29T00:12:32;101039.05;;;13.07;48.48
35577;BME280;21680;52.400;16.920;2023-05-29T00:14:57;101040.31;;;13.07;48.63
35577;BME280;21680;52.400;16.920;2023-05-29T00:17:23;101038.55;;;13.07;48.77
35577;BME280;21680;52.400;16.920;2023-05-29T00:19:48;101032.39;;;13.08;48.88
35577;BME280;21680;52.400;16.920;2023-05-29T00:22:13;101033.08;;;13.09;48.80
35577;BME280;21680;52.400;16.920;2023-05-29T00:24:38;101034.76;;;13.07;48.78
35577;BME280;21680;52.400;16.920;2023-05-29T00:27:04;101033.94;;;13.02;48.82
35577;BME280;21680;52.400;16.920;2023-05-29T00:29:29;101042.40;;;12.98;48.96
35577;BME280;21680;52.400;16.920;2023-05-29T00:31:56;101044.00;;;12.98;49.02
35577;BME280;21680;52.400;16.920;2023-05-29T00:34:22;101041.50;;;12.98;49.00
35577;BME280;21680;52.400;16.920;2023-05-29T00:36:51;101038.39;;;12.96;49.08
35577;BME280;21680;52.400;16.920;2023-05-29T00:39:17;101035.65;;;12.92;49.20
35577;BME280;21680;52.400;16.920;2023-05-29T00:41:42;101037.16;;;12.91;49.25
35577;BME280;21680;52.400;16.920;2023-05-29T00:44:08;101036.23;;;12.88;49.29
35577;BME280;21680;52.400;16.920;2023-05-29T00:46:33;101041.13;;;12.83;49.34
35577;BME280;21680;52.400;16.920;2023-05-29T00:49:00;101038.59;;;12.80;49.51
35577;BME280;21680;52.400;16.920;2023-05-29T00:51:27;101035.52;;;12.76;49.55
35577;BME280;21680;52.400;16.920;2023-05-29T00:53:54;101035.54;;;12.72;49.60
35577;BME280;21680;52.400;16.920;2023-05-29T00:56:20;101037.47;;;12.69;49.78
35577;BME280;21680;52.400;16.920;2023-05-29T00:58:48;101038.28;;;12.67;49.85
35577;BME280;21680;52.400;16.920;2023-05-29T01:01:15;101032.91;;;12.63;50.08
35577;BME280;21680;52.400;16.920;2023-05-29T01:03:41;101032.80;;;12.61;50.10
35577;BME280;21680;52.400;16.920;2023-05-29T01:06:07;101039.19;;;12.59;50.26
35577;BME280;21680;52.400;16.920;2023-05-29T01:08:32;101040.81;;;12.55;50.29
35577;BME280;21680;52.400;16.920;2023-05-29T01:11:05;101042.30;;;12.50;50.47
35577;BME280;21680;52.400;16.920;2023-05-29T01:13:34;101047.45;;;12.47;50.54
35577;BME280;21680;52.400;16.920;2023-05-29T01:16:09;101042.23;;;12.43;50.66
35577;BME280;21680;52.400;16.920;2023-05-29T01:19:00;101040.35;;;12.41;50.81
35577;BME280;21680;52.400;16.920;2023-05-29T01:24:14;101038.03;;;12.37;50.97
35577;BME280;21680;52.400;16.920;2023-05-29T01:27:01;101039.02;;;12.34;51.10
35577;BME280;21680;52.400;16.920;2023-05-29T01:29:29;101040.73;;;12.32;51.24
35577;BME280;21680;52.400;16.920;2023-05-29T01:31:57;101042.60;;;12.31;51.28
35577;BME280;21680;52.400;16.920;2023-05-29T01:34:23;101035.83;;;12.30;51.36
35577;BME280;21680;52.400;16.920;2023-05-29T01:36:49;101034.10;;;12.28;51.41
35577;BME280;21680;52.400;16.920;2023-05-29T01:39:14;101033.46;;;12.27;51.45
35577;BME280;21680;52.400;16.920;2023-05-29T01:41:42;101033.05;;;12.24;51.56
35577;BME280;21680;52.400;16.920;2023-05-29T01:44:09;101033.17;;;12.21;51.62
35577;BME280;21680;52.400;16.920;2023-05-29T01:46:42;101033.23;;;12.20;51.68
35577;BME280;21680;52.400;16.920;2023-05-29T01:49:08;101031.86;;;12.19;51.72
35577;BME280;21680;52.400;16.920;2023-05-29T01:51:35;101029.26;;;12.17;51.92
35577;BME280;21680;52.400;16.920;2023-05-29T01:54:01;101027.04;;;12.15;51.96
35577;BME280;21680;52.400;16.920;2023-05-29T01:56:27;101027.50;;;12.12;52.08
35577;BME280;21680;52.400;16.920;2023-05-29T01:58:54;101026.69;;;12.10;52.11
35577;BME280;21680;52.400;16.920;2023-05-29T02:01:21;101030.59;;;12.07;52.33
35577;BME280;21680;52.400;16.920;2023-05-29T02:03:46;101031.90;;;12.05;52.30
35577;BME280;21680;52.400;16.920;2023-05-29T02:06:12;101031.17;;;12.01;52.46
35577;BME280;21680;52.400;16.920;2023-05-29T02:08:37;101031.14;;;11.98;52.64
35577;BME280;21680;52.400;16.920;2023-05-29T02:11:02;101034.26;;;11.96;52.61
35577;BME280;21680;52.400;16.920;2023-05-29T02:13:27;101039.84;;;11.95;52.75
35577;BME280;21680;52.400;16.920;2023-05-29T02:15:53;101037.45;;;11.93;52.85
35577;BME280;21680;52.400;16.920;2023-05-29T02:18:18;101035.93;;;11.91;52.97
35577;BME280;21680;52.400;16.920;2023-05-29T02:20:44;101035.88;;;11.88;53.01
35577;BME280;21680;52.400;16.920;2023-05-29T02:23:09;101032.81;;;11.84;53.11
35577;BME280;21680;52.400;16.920;2023-05-29T02:25:35;101035.30;;;11.80;53.18
35577;BME280;21680;52.400;16.920;2023-05-29T02:28:01;101035.02;;;11.78;53.27
35577;BME280;21680;52.400;16.920;2023-05-29T02:30:27;101035.25;;;11.72;53.27
35577;BME280;21680;52.400;16.920;2023-05-29T02:32:52;101038.81;;;11.68;53.45
35577;BME280;21680;52.400;16.920;2023-05-29T02:35:18;101037.16;;;11.65;53.48
35577;BME280;21680;52.400;16.920;2023-05-29T02:37:46;101043.45;;;11.60;53.53
35577;BME280;21680;52.400;16.920;2023-05-29T02:40:11;101040.01;;;11.52;53.42
35577;BME280;21680;52.400;16.920;2023-05-29T02:42:36;101041.80;;;11.44;53.46
35577;BME280;21680;52.400;16.920;2023-05-29T02:45:02;101039.80;;;11.40;53.80
35577;BME280;21680;52.400;16.920;2023-05-29T02:47:27;101040.59;;;11.38;53.86
35577;BME280;21680;52.400;16.920;2023-05-29T02:49:52;101043.30;;;11.38;54.00
35577;BME280;21680;52.400;16.920;2023-05-29T02:52:17;101041.31;;;11.38;54.16
35577;BME280;21680;52.400;16.920;2023-05-29T02:54:43;101040.20;;;11.39;54.24
35577;BME280;21680;52.400;16.920;2023-05-29T02:57:08;101038.05;;;11.39;54.28
35577;BME280;21680;52.400;16.920;2023-05-29T02:59:33;101036.28;;;11.38;54.42
35577;BME280;21680;52.400;16.920;2023-05-29T03:01:58;101037.68;;;11.39;54.46
35577;BME280;21680;52.400;16.920;2023-05-29T03:04:24;101035.36;;;11.39;54.57
35577;BME280;21680;52.400;16.920;2023-05-29T03:06:49;101034.69;;;11.38;54.58
35577;BME280;21680;52.400;16.920;2023-05-29T03:09:16;101038.33;;;11.36;54.64
35577;BME280;21680;52.400;16.920;2023-05-29T03:11:42;101037.64;;;11.36;54.53
35577;BME280;21680;52.400;16.920;2023-05-29T03:14:08;101039.67;;;11.34;54.63
35577;BME280;21680;52.400;16.920;2023-05-29T03:16:34;101039.68;;;11.34;54.61
35577;BME280;21680;52.400;16.920;2023-05-29T03:19:01;101042.84;;;11.31;54.65
35577;BME280;21680;52.400;16.920;2023-05-29T03:21:26;101043.20;;;11.31;54.79
35577;BME280;21680;52.400;16.920;2023-05-29T03:23:52;101045.21;;;11.30;54.72
35577;BME280;21680;52.400;16.920;2023-05-29T03:26:17;101052.81;;;11.28;54.70
35577;BME280;21680;52.400;16.920;2023-05-29T03:28:42;101053.88;;;11.24;54.80
35577;BME280;21680;52.400;16.920;2023-05-29T03:31:07;101052.19;;;11.21;54.82
35577;BME280;21680;52.400;16.920;2023-05-29T03:33:34;101057.48;;;11.19;54.84
35577;BME280;21680;52.400;16.920;2023-05-29T03:35:59;101056.39;;;11.15;54.90
35577;BME280;21680;52.400;16.920;2023-05-29T03:38:25;101053.79;;;11.13;55.16
35577;BME280;21680;52.400;16.920;2023-05-29T03:40:50;101054.44;;;11.14;55.38
35577;BME280;21680;52.400;16.920;2023-05-29T03:43:16;101054.23;;;11.15;55.22
35577;BME280;21680;52.400;16.920;2023-05-29T03:45:41;101056.87;;;11.16;55.43
35577;BME280;21680;52.400;16.920;2023-05-29T03:48:06;101054.80;;;11.19;55.50
35577;BME280;21680;52.400;16.920;2023-05-29T03:50:31;101056.48;;;11.21;55.86
35577;BME280;21680;52.400;16.920;2023-05-29T03:52:57;101060.02;;;11.26;56.08
35577;BME280;21680;52.400;16.920;2023-05-29T03:55:22;101063.55;;;11.32;56.00
35577;BME280;21680;52.400;16.920;2023-05-29T03:57:47;101064.92;;;11.38;56.12
35577;BME280;21680;52.400;16.920;2023-05-29T04:00:13;101060.02;;;11.45;56.16
35577;BME280;21680;52.400;16.920;2023-05-29T04:02:39;101059.10;;;11.50;56.39
35577;BME280;21680;52.400;16.920;2023-05-29T04:05:05;101061.54;;;11.56;56.41
35577;BME280;21680;52.400;16.920;2023-05-29T04:07:35;101063.48;;;11.60;56.47
35577;BME280;21680;52.400;16.920;2023-05-29T04:10:02;101064.58;;;11.64;56.52
35577;BME280;21680;52.400;16.920;2023-05-29T04:12:28;101068.35;;;11.68;56.64
35577;BME280;21680;52.400;16.920;2023-05-29T04:14:53;101071.17;;;11.74;56.68
35577;BME280;21680;52.400;16.920;2023-05-29T04:17:18;101076.16;;;11.79;56.66
35577;BME280;21680;52.400;16.920;2023-05-29T04:19:43;101076.38;;;11.83;56.83
35577;BME280;21680;52.400;16.920;2023-05-29T04:22:09;101075.39;;;11.85;56.93
35577;BME280;21680;52.400;16.920;2023-05-29T04:24:34;101079.39;;;11.88;57.06
35577;BME280;21680;52.400;16.920;2023-05-29T04:27:01;101079.18;;;11.92;57.07
35577;BME280;21680;52.400;16.920;2023-05-29T04:29:27;101079.56;;;11.96;57.20
35577;BME280;21680;52.400;16.920;2023-05-29T04:31:53;101080.16;;;11.99;57.19
35577;BME280;21680;52.400;16.920;2023-05-29T04:34:18;101085.52;;;12.04;57.36
35577;BME280;21680;52.400;16.920;2023-05-29T04:36:46;101085.41;;;12.11;57.31
35577;BME280;21680;52.400;16.920;2023-05-29T04:39:11;101087.66;;;12.17;57.41
35577;BME280;21680;52.400;16.920;2023-05-29T04:41:36;101085.96;;;12.23;57.37
35577;BME280;21680;52.400;16.920;2023-05-29T04:44:03;101082.97;;;12.26;57.42
35577;BME280;21680;52.400;16.920;2023-05-29T04:46:29;101080.71;;;12.28;57.44
35577;BME280;21680;52.400;16.920;2023-05-29T04:48:54;101080.17;;;12.32;57.33
35577;BME280;21680;52.400;16.920;2023-05-29T04:51:20;101080.20;;;12.36;57.41
35577;BME280;21680;52.400;16.920;2023-05-29T04:53:47;101075.59;;;12.39;57.58
35577;BME280;21680;52.400;16.920;2023-05-29T04:56:13;101075.60;;;12.43;57.70
35577;BME280;21680;52.400;16.920;2023-05-29T04:58:39;101074.36;;;12.46;57.79
35577;BME280;21680;52.400;16.920;2023-05-29T05:01:04;101074.66;;;12.52;57.88
35577;BME280;21680;52.400;16.920;2023-05-29T05:03:30;101073.19;;;12.56;57.72
35577;BME280;21680;52.400;16.920;2023-05-29T05:05:56;101070.48;;;12.60;57.84
35577;BME280;21680;52.400;16.920;2023-05-29T05:08:22;101069.21;;;12.65;57.74
35577;BME280;21680;52.400;16.920;2023-05-29T05:10:48;101070.38;;;12.71;57.78
35577;BME280;21680;52.400;16.920;2023-05-29T05:13:13;101069.23;;;12.80;57.85
35577;BME280;21680;52.400;16.920;2023-05-29T05:15:38;101069.55;;;12.85;57.78
35577;BME280;21680;52.400;16.920;2023-05-29T05:18:03;101068.06;;;12.90;57.76
35577;BME280;21680;52.400;16.920;2023-05-29T05:20:29;101068.09;;;12.97;57.73
35577;BME280;21680;52.400;16.920;2023-05-29T05:22:54;101066.91;;;13.03;57.71
35577;BME280;21680;52.400;16.920;2023-05-29T05:25:21;101071.10;;;13.09;57.60
35577;BME280;21680;52.400;16.920;2023-05-29T05:27:46;101073.27;;;13.16;57.62
35577;BME280;21680;52.400;16.920;2023-05-29T05:30:12;101071.33;;;13.24;57.66
35577;BME280;21680;52.400;16.920;2023-05-29T05:32:38;101067.23;;;13.30;57.55
35577;BME280;21680;52.400;16.920;2023-05-29T05:35:03;101065.88;;;13.36;57.48
35577;BME280;21680;52.400;16.920;2023-05-29T05:37:29;101065.28;;;13.41;57.41
35577;BME280;21680;52.400;16.920;2023-05-29T05:39:54;101067.86;;;13.47;57.35
35577;BME280;21680;52.400;16.920;2023-05-29T05:42:19;101072.42;;;13.53;57.36
35577;BME280;21680;52.400;16.920;2023-05-29T05:44:45;101071.05;;;13.59;57.31
35577;BME280;21680;52.400;16.920;2023-05-29T05:47:11;101068.52;;;13.66;57.13
35577;BME280;21680;52.400;16.920;2023-05-29T05:49:36;101070.09;;;13.75;57.16
35577;BME280;21680;52.400;16.920;2023-05-29T05:52:01;101075.36;;;13.81;57.12
35577;BME280;21680;52.400;16.920;2023-05-29T05:54:27;101075.02;;;13.87;57.02
35577;BME280;21680;52.400;16.920;2023-05-29T05:56:52;101081.37;;;13.93;56.96
35577;BME280;21680;52.400;16.920;2023-05-29T05:59:18;101080.34;;;13.99;56.89
35577;BME280;21680;52.400;16.920;2023-05-29T06:01:43;101079.11;;;14.06;56.79
35577;BME280;21680;52.400;16.920;2023-05-29T06:04:08;101080.61;;;14.12;56.68
35577;BME280;21680;52.400;16.920;2023-05-29T06:06:34;101087.45;;;14.19;56.64
35577;BME280;21680;52.400;16.920;2023-05-29T06:09:00;101094.17;;;14.24;56.50
35577;BME280;21680;52.400;16.920;2023-05-29T06:11:26;101097.40;;;14.27;56.45
35577;BME280;21680;52.400;16.920;2023-05-29T06:13:51;101098.62;;;14.32;56.38
35577;BME280;21680;52.400;16.920;2023-05-29T06:16:18;101096.19;;;14.37;56.42
35577;BME280;21680;52.400;16.920;2023-05-29T06:18:43;101096.21;;;14.44;56.34
35577;BME280;21680;52.400;16.920;2023-05-29T06:21:09;101097.85;;;14.50;56.16
35577;BME280;21680;52.400;16.920;2023-05-29T06:23:35;101098.95;;;14.57;56.14
35577;BME280;21680;52.400;16.920;2023-05-29T06:26:02;101098.39;;;14.64;56.13
35577;BME280;21680;52.400;16.920;2023-05-29T06:28:28;101096.84;;;14.70;56.00
35577;BME280;21680;52.400;16.920;2023-05-29T06:30:53;101099.75;;;14.76;55.94
35577;BME280;21680;52.400;16.920;2023-05-29T06:33:18;101104.02;;;14.83;55.87
35577;BME280;21680;52.400;16.920;2023-05-29T06:35:45;101103.39;;;14.92;55.81
35577;BME280;21680;52.400;16.920;2023-05-29T06:38:10;101101.96;;;15.05;55.74
35577;BME280;21680;52.400;16.920;2023-05-29T06:40:36;101102.81;;;15.15;55.67
35577;BME280;21680;52.400;16.920;2023-05-29T06:43:01;101109.89;;;15.24;55.45
35577;BME280;21680;52.400;16.920;2023-05-29T06:45:26;101109.66;;;15.28;55.41
35577;BME280;21680;52.400;16.920;2023-05-29T06:47:51;101113.40;;;15.36;55.37
35577;BME280;21680;52.400;16.920;2023-05-29T06:50:16;101115.69;;;15.43;55.24
35577;BME280;21680;52.400;16.920;2023-05-29T06:52:42;101118.00;;;15.50;55.17
35577;BME280;21680;52.400;16.920;2023-05-29T06:55:07;101115.73;;;15.58;55.12
35577;BME280;21680;52.400;16.920;2023-05-29T06:57:32;101117.67;;;15.68;55.05
35577;BME280;21680;52.400;16.920;2023-05-29T06:59:58;101118.20;;;15.72;54.83
35577;BME280;21680;52.400;16.920;2023-05-29T07:02:23;101118.44;;;15.77;55.02
35577;BME280;21680;52.400;16.920;2023-05-29T07:04:48;101124.62;;;15.82;55.01
35577;BME280;21680;52.400;16.920;2023-05-29T07:07:13;101117.08;;;15.87;54.77
35577;BME280;21680;52.400;16.920;2023-05-29T07:09:39;101117.95;;;15.94;54.77
35577;BME280;21680;52.400;16.920;2023-05-29T07:12:05;101118.78;;;16.02;54.78
35577;BME280;21680;52.400;16.920;2023-05-29T07:14:30;101118.66;;;16.10;54.66
35577;BME280;21680;52.400;16.920;2023-05-29T07:16:56;101119.60;;;16.16;54.51
35577;BME280;21680;52.400;16.920;2023-05-29T07:19:21;101116.08;;;16.20;54.45
35577;BME280;21680;52.400;16.920;2023-05-29T07:21:46;101115.96;;;16.25;54.36
35577;BME280;21680;52.400;16.920;2023-05-29T07:24:11;101115.38;;;16.32;54.28
35577;BME280;21680;52.400;16.920;2023-05-29T07:26:37;101115.69;;;16.38;54.05
35577;BME280;21680;52.400;16.920;2023-05-29T07:29:02;101116.98;;;16.44;54.09
35577;BME280;21680;52.400;16.920;2023-05-29T07:31:27;101117.23;;;16.55;53.99
35577;BME280;21680;52.400;16.920;2023-05-29T07:33:53;101110.73;;;16.55;53.53
35577;BME280;21680;52.400;16.920;2023-05-29T07:36:19;101110.71;;;16.52;53.44
35577;BME280;21680;52.400;16.920;2023-05-29T07:38:44;101110.91;;;16.58;53.47
35577;BME280;21680;52.400;16.920;2023-05-29T07:41:10;101109.66;;;16.70;53.36
35577;BME280;21680;52.400;16.920;2023-05-29T07:43:35;101111.55;;;16.77;53.03
35577;BME280;21680;52.400;16.920;2023-05-29T07:46:00;101118.87;;;16.84;53.02
35577;BME280;21680;52.400;16.920;2023-05-29T07:48:26;101118.72;;;16.95;52.82
35577;BME280;21680;52.400;16.920;2023-05-29T07:50:51;101113.70;;;17.04;52.45
35577;BME280;21680;52.400;16.920;2023-05-29T07:53:17;101118.07;;;17.11;52.66
35577;BME280;21680;52.400;16.920;2023-05-29T07:55:42;101123.02;;;17.18;52.22
35577;BME280;21680;52.400;16.920;2023-05-29T07:58:07;101123.98;;;17.21;51.95
35577;BME280;21680;52.400;16.920;2023-05-29T08:00:34;101122.06;;;17.23;51.86
35577;BME280;21680;52.400;16.920;2023-05-29T08:02:59;101123.91;;;17.33;51.92
35577;BME280;21680;52.400;16.920;2023-05-29T08:05:25;101127.21;;;17.44;51.75
35577;BME280;21680;52.400;16.920;2023-05-29T08:07:50;101124.76;;;17.51;51.55
35577;BME280;21680;52.400;16.920;2023-05-29T08:10:16;101125.46;;;17.57;51.56
35577;BME280;21680;52.400;16.920;2023-05-29T08:12:41;101126.52;;;17.63;51.37
35577;BME280;21680;52.400;16.920;2023-05-29T08:15:07;101131.83;;;17.70;51.30
35577;BME280;21680;52.400;16.920;2023-05-29T08:17:33;101128.19;;;17.79;50.98
35577;BME280;21680;52.400;16.920;2023-05-29T08:19:58;101127.19;;;17.83;50.61
35577;BME280;21680;52.400;16.920;2023-05-29T08:22:28;101125.13;;;17.87;50.62
35577;BME280;21680;52.400;16.920;2023-05-29T08:24:55;101130.45;;;17.94;50.39
35577;BME280;21680;52.400;16.920;2023-05-29T08:27:20;101131.64;;;18.00;50.28
35577;BME280;21680;52.400;16.920;2023-05-29T08:29:46;101135.53;;;18.10;50.24
35577;BME280;21680;52.400;16.920;2023-05-29T08:32:11;101136.94;;;18.13;49.69
35577;BME280;21680;52.400;16.920;2023-05-29T08:34:36;101137.07;;;18.14;49.56
35577;BME280;21680;52.400;16.920;2023-05-29T08:37:01;101132.52;;;18.22;49.54
35577;BME280;21680;52.400;16.920;2023-05-29T08:39:26;101135.87;;;18.36;49.26
35577;BME280;21680;52.400;16.920;2023-05-29T08:42:04;101139.39;;;18.45;48.77
35577;BME280;21680;52.400;16.920;2023-05-29T08:44:32;101136.11;;;18.51;48.50
35577;BME280;21680;52.400;16.920;2023-05-29T08:47:03;101137.52;;;18.60;48.39
35577;BME280;21680;52.400;16.920;2023-05-29T08:49:37;101136.72;;;18.69;48.41
35577;BME280;21680;52.400;16.920;2023-05-29T08:52:15;101131.02;;;18.76;48.27
35577;BME280;21680;52.400;16.920;2023-05-29T08:54:43;101129.59;;;18.78;48.10
35577;BME280;21680;52.400;16.920;2023-05-29T08:57:09;101129.29;;;18.87;47.86
35577;BME280;21680;52.400;16.920;2023-05-29T08:59:36;101131.20;;;18.99;47.71
35577;BME280;21680;52.400;16.920;2023-05-29T09:02:02;101121.34;;;19.05;47.55
35577;BME280;21680;52.400;16.920;2023-05-29T09:04:28;101117.22;;;19.09;47.41
35577;BME280;21680;52.400;16.920;2023-05-29T09:06:55;101121.77;;;19.11;47.27
35577;BME280;21680;52.400;16.920;2023-05-29T09:09:22;101119.84;;;19.16;47.13
35577;BME280;21680;52.400;16.920;2023-05-29T09:11:49;101122.41;;;19.23;46.90
35577;BME280;21680;52.400;16.920;2023-05-29T09:14:34;101120.20;;;19.31;46.85
35577;BME280;21680;52.400;16.920;2023-05-29T09:17:00;101123.94;;;19.42;46.74
35577;BME280;21680;52.400;16.920;2023-05-29T09:19:25;101129.27;;;19.53;45.99
35577;BME280;21680;52.400;16.920;2023-05-29T09:21:51;101130.31;;;19.49;45.47
35577;BME280;21680;52.400;16.920;2023-05-29T09:24:16;101125.17;;;19.42;45.48
35577;BME280;21680;52.400;16.920;2023-05-29T09:26:51;101126.27;;;19.42;45.51
35577;BME280;21680;52.400;16.920;2023-05-29T09:29:16;101130.83;;;19.42;45.15
35577;BME280;21680;52.400;16.920;2023-05-29T09:31:47;101132.27;;;19.39;44.83
35577;BME280;21680;52.400;16.920;2023-05-29T09:34:14;101127.59;;;19.36;44.95
35577;BME280;21680;52.400;16.920;2023-05-29T09:36:40;101127.42;;;19.39;45.11
35577;BME280;21680;52.400;16.920;2023-05-29T09:39:06;101130.67;;;19.46;45.16
35577;BME280;21680;52.400;16.920;2023-05-29T09:41:44;101129.17;;;19.60;45.21
35577;BME280;21680;52.400;16.920;2023-05-29T09:44:13;101131.14;;;19.72;45.20
35577;BME280;21680;52.400;16.920;2023-05-29T09:46:40;101136.38;;;19.80;44.82
35577;BME280;21680;52.400;16.920;2023-05-29T09:49:13;101132.90;;;19.73;44.47
35577;BME280;21680;52.400;16.920;2023-05-29T09:51:39;101136.48;;;19.71;44.63
35577;BME280;21680;52.400;16.920;2023-05-29T09:54:17;101134.58;;;19.77;44.63
35577;BME280;21680;52.400;16.920;2023-05-29T09:56:43;101131.15;;;19.87;44.61
35577;BME280;21680;52.400;16.920;2023-05-29T09:59:14;101134.57;;;19.94;44.65
35577;BME280;21680;52.400;16.920;2023-05-29T10:01:41;101131.77;;;20.03;44.49
35577;BME280;21680;52.400;16.920;2023-05-29T10:04:10;101132.02;;;20.04;44.39
35577;BME280;21680;52.400;16.920;2023-05-29T10:06:37;101130.27;;;20.03;44.04
35577;BME280;21680;52.400;16.920;2023-05-29T10:09:05;101131.89;;;19.96;43.91
35577;BME280;21680;52.400;16.920;2023-05-29T10:11:35;101129.38;;;19.98;44.01
35577;BME280;21680;52.400;16.920;2023-05-29T10:14:03;101125.04;;;20.05;43.85
35577;BME280;21680;52.400;16.920;2023-05-29T10:16:31;101129.11;;;20.09;43.86
35577;BME280;21680;52.400;16.920;2023-05-29T10:19:01;101124.34;;;20.22;43.85
35577;BME280;21680;52.400;16.920;2023-05-29T10:21:32;101117.20;;;20.34;43.77
35577;BME280;21680;52.400;16.920;2023-05-29T10:24:04;101117.89;;;20.49;43.68
35577;BME280;21680;52.400;16.920;2023-05-29T10:26:34;101116.08;;;20.63;43.43
35577;BME280;21680;52.400;16.920;2023-05-29T10:31:42;101126.77;;;20.68;42.71
35577;BME280;21680;52.400;16.920;2023-05-29T10:34:25;101120.27;;;20.65;42.91
35577;BME280;21680;52.400;16.920;2023-05-29T10:37:04;101116.72;;;20.80;42.92
35577;BME280;21680;52.400;16.920;2023-05-29T10:39:31;101119.56;;;20.99;42.80
35577;BME280;21680;52.400;16.920;2023-05-29T10:41:57;101119.91;;;21.18;42.41
35577;BME280;21680;52.400;16.920;2023-05-29T10:49:23;101113.94;;;21.53;41.74
35577;BME280;21680;52.400;16.920;2023-05-29T10:51:49;101108.59;;;21.52;40.92
35577;BME280;21680;52.400;16.920;2023-05-29T10:54:15;101107.05;;;21.49;41.00
35577;BME280;21680;52.400;16.920;2023-05-29T10:56:44;101105.52;;;21.67;41.10
35577;BME280;21680;52.400;16.920;2023-05-29T10:59:10;101102.94;;;21.65;40.93
35577;BME280;21680;52.400;16.920;2023-05-29T11:01:38;101111.34;;;21.47;40.93
35577;BME280;21680;52.400;16.920;2023-05-29T11:06:51;101109.44;;;21.03;40.33
35577;BME280;21680;52.400;16.920;2023-05-29T11:09:27;101106.46;;;20.99;40.77
35577;BME280;21680;52.400;16.920;2023-05-29T11:14:56;101094.63;;;21.40;40.38
35577;BME280;21680;52.400;16.920;2023-05-29T11:20:07;101099.23;;;21.55;39.34
35577;BME280;21680;52.400;16.920;2023-05-29T11:22:53;101095.55;;;21.42;39.15
35577;BME280;21680;52.400;16.920;2023-05-29T11:25:21;101095.52;;;21.29;39.09
35577;BME280;21680;52.400;16.920;2023-05-29T11:27:47;101092.52;;;21.30;39.07
35577;BME280;21680;52.400;16.920;2023-05-29T11:30:12;101096.13;;;21.33;38.80
35577;BME280;21680;52.400;16.920;2023-05-29T11:32:39;101091.92;;;21.31;38.66
35577;BME280;21680;52.400;16.920;2023-05-29T11:35:09;101087.02;;;21.40;38.28
35577;BME280;21680;52.400;16.920;2023-05-29T11:37:37;101086.92;;;21.46;37.93
35577;BME280;21680;52.400;16.920;2023-05-29T11:40:07;101091.56;;;21.58;38.06
35577;BME280;21680;52.400;16.920;2023-05-29T11:42:35;101093.59;;;21.84;38.00
35577;BME280;21680;52.400;16.920;2023-05-29T11:45:18;101090.89;;;22.01;37.52
35577;BME280;21680;52.400;16.920;2023-05-29T11:48:01;101096.31;;;22.08;37.39
35577;BME280;21680;52.400;16.920;2023-05-29T11:50:28;101092.73;;;22.14;36.75
35577;BME280;21680;52.400;16.920;2023-05-29T11:52:56;101094.11;;;22.29;36.11
35577;BME280;21680;52.400;16.920;2023-05-29T11:55:23;101093.64;;;22.26;35.60
35577;BME280;21680;52.400;16.920;2023-05-29T11:57:49;101093.52;;;22.34;35.71
35577;BME280;21680;52.400;16.920;2023-05-29T12:00:16;101088.58;;;22.32;35.65
35577;BME280;21680;52.400;16.920;2023-05-29T12:02:43;101084.90;;;22.37;35.57
35577;BME280;21680;52.400;16.920;2023-05-29T12:05:09;101087.40;;;22.44;35.27
35577;BME280;21680;52.400;16.920;2023-05-29T12:07:36;101090.70;;;22.40;35.39
35577;BME280;21680;52.400;16.920;2023-05-29T12:10:11;101093.34;;;22.39;35.14
35577;BME280;21680;52.400;16.920;2023-05-29T12:12:36;101089.02;;;22.35;34.47
35577;BME280;21680;52.400;16.920;2023-05-29T12:15:02;101084.95;;;22.22;34.50
35577;BME280;21680;52.400;16.920;2023-05-29T12:17:31;101081.36;;;22.19;34.53
35577;BME280;21680;52.400;16.920;2023-05-29T12:19:56;101077.08;;;22.37;34.71
35577;BME280;21680;52.400;16.920;2023-05-29T12:22:39;101077.69;;;22.53;34.68
35577;BME280;21680;52.400;16.920;2023-05-29T12:25:13;101070.93;;;22.61;34.60
35577;BME280;21680;52.400;16.920;2023-05-29T12:27:40;101069.29;;;22.76;34.49
35577;BME280;21680;52.400;16.920;2023-05-29T12:30:09;101065.89;;;22.98;34.42
35577;BME280;21680;52.400;16.920;2023-05-29T12:32:39;101069.07;;;23.26;34.09
35577;BME280;21680;52.400;16.920;2023-05-29T12:35:16;101065.79;;;23.32;33.84
35577;BME280;21680;52.400;16.920;2023-05-29T12:37:53;101062.16;;;23.34;33.90
35577;BME280;21680;52.400;16.920;2023-05-29T12:42:47;101067.77;;;23.62;34.02
35577;BME280;21680;52.400;16.920;2023-05-29T12:45:13;101066.27;;;23.44;32.92
35577;BME280;21680;52.400;16.920;2023-05-29T12:47:59;101060.73;;;23.09;33.09
35577;BME280;21680;52.400;16.920;2023-05-29T12:50:28;101059.48;;;23.23;33.62
35577;BME280;21680;52.400;16.920;2023-05-29T12:53:00;101054.65;;;23.54;33.60
35577;BME280;21680;52.400;16.920;2023-05-29T12:55:27;101054.19;;;23.77;33.37
35577;BME280;21680;52.400;16.920;2023-05-29T12:57:54;101055.96;;;23.93;33.35
35577;BME280;21680;52.400;16.920;2023-05-29T13:00:20;101052.91;;;23.94;33.07